sensor_id;sensor_type;location;lat;lon;timestamp;temperature;humidity
26990;DHT22;14537;47.788;11.858;2023-01-16T00:01:22;-0.30;99.90
26990;DHT22;14537;47.788;11.858;2023-01-16T00:03:48;-0.30;99.90
26990;DHT22;14537;47.788;11.858;2023-01-16T00:06:14;-0.30;99.90
26990;DHT22;14537;47.788;11.858;2023-01-16T00:08:41;-0.30;99.90
26990;DHT22;14537;47.788;11.858;2023-01-16T00:11:06;-0.40;99.90
26990;DHT22;14537;47.788;11.858;2023-01-16T00:13:32;-0.40;99.90
26990;DHT22;14537;47.788;11.858;2023-01-16T00:15:58;-0.40;99.90
26990;DHT22;14537;47.788;11.858;2023-01-16T00:18:23;-0.50;99.90
26990;DHT22;14537;47.788;11.858;2023-01-16T00:20:49;-0.50;99.90
26990;DHT22;14537;47.788;11.858;2023-01-16T00:23:15;-0.50;99.90
26990;DHT22;14537;47.788;11.858;2023-01-16T00:25:41;-0.50;99.90
26990;DHT22;14537;47.788;11.858;2023-01-16T00:28:08;-0.60;99.90
26990;DHT22;14537;47.788;11.858;2023-01-16T00:30:35;-0.60;99.90
26990;DHT22;14537;47.788;11.858;2023-01-16T00:33:01;-0.70;99.90
26990;DHT22;14537;47.788;11.858;2023-01-16T00:35:27;-0.70;99.90
26990;DHT22;14537;47.788;11.858;2023-01-16T00:37:53;-0.60;99.90
26990;DHT22;14537;47.788;11.858;2023-01-16T00:40:19;-0.70;99.90
26990;DHT22;14537;47.788;11.858;2023-01-16T00:42:45;-0.70;99.90
26990;DHT22;14537;47.788;11.858;2023-01-16T00:45:11;-0.70;99.90
26990;DHT22;14537;47.788;11.858;2023-01-16T00:47:36;-0.70;99.90
26990;DHT22;14537;47.788;11.858;2023-01-16T00:50:03;-0.70;99.90
26990;DHT22;14537;47.788;11.858;2023-01-16T00:52:28;-0.70;99.90
26990;DHT22;14537;47.788;11.858;2023-01-16T00:54:54;-0.70;99.90
26990;DHT22;14537;47.788;11.858;2023-01-16T00:57:20;-0.70;99.90
26990;DHT22;14537;47.788;11.858;2023-01-16T00:59:45;-0.70;99.90
26990;DHT22;14537;47.788;11.858;2023-01-16T01:02:11;-0.70;99.90
26990;DHT22;14537;47.788;11.858;2023-01-16T01:04:36;-0.70;99.90
26990;DHT22;14537;47.788;11.858;2023-01-16T01:07:02;-0.80;99.90
26990;DHT22;14537;47.788;11.858;2023-01-16T01:09:28;-0.80;99.90
26990;DHT22;14537;47.788;11.858;2023-01-16T01:11:55;-0.70;99.90
26990;DHT22;14537;47.788;11.858;2023-01-16T01:14:20;-0.70;99.90
26990;DHT22;14537;47.788;11.858;2023-01-16T01:16:46;-0.70;99.90
26990;DHT22;14537;47.788;11.858;2023-01-16T01:19:12;-0.80;99.90
26990;DHT22;14537;47.788;11.858;2023-01-16T01:21:37;-0.70;99.90
26990;DHT22;14537;47.788;11.858;2023-01-16T01:24:03;-0.70;99.90
26990;DHT22;14537;47.788;11.858;2023-01-16T01:26:28;-0.70;99.90
26990;DHT22;14537;47.788;11.858;2023-01-16T01:28:54;-0.70;99.90
26990;DHT22;14537;47.788;11.858;2023-01-16T01:31:20;-0.60;99.90
26990;DHT22;14537;47.788;11.858;2023-01-16T01:33:45;-0.70;99.90
26990;DHT22;14537;47.788;11.858;2023-01-16T01:36:11;-0.70;99.90
26990;DHT22;14537;47.788;11.858;2023-01-16T01:38:36;-0.70;99.90
26990;DHT22;14537;47.788;11.858;2023-01-16T01:41:02;-0.70;99.90
26990;DHT22;14537;47.788;11.858;2023-01-16T01:43:49;-0.80;99.90
26990;DHT22;14537;47.788;11.858;2023-01-16T01:46:39;-0.70;99.90
26990;DHT22;14537;47.788;11.858;2023-01-16T01:49:23;-0.70;99.90
26990;DHT22;14537;47.788;11.858;2023-01-16T01:51:51;-0.80;99.90
26990;DHT22;14537;47.788;11.858;2023-01-16T01:54:23;-0.80;99.90
26990;DHT22;14537;47.788;11.858;2023-01-16T01:57:02;-0.80;99.90
26990;DHT22;14537;47.788;11.858;2023-01-16T01:59:32;-1.10;99.90
26990;DHT22;14537;47.788;11.858;2023-01-16T02:01:59;-1.10;99.90
26990;DHT22;14537;47.788;11.858;2023-01-16T02:04:30;-1.10;99.90
26990;DHT22;14537;47.788;11.858;2023-01-16T02:07:05;-1.00;99.90
26990;DHT22;14537;47.788;11.858;2023-01-16T02:09:31;-1.00;99.90
26990;DHT22;14537;47.788;11.858;2023-01-16T02:12:17;-1.00;99.90
26990;DHT22;14537;47.788;11.858;2023-01-16T02:14:44;-1.00;99.90
26990;DHT22;14537;47.788;11.858;2023-01-16T02:17:19;-1.00;99.90
26990;DHT22;14537;47.788;11.858;2023-01-16T02:39:47;-1.00;99.90
26990;DHT22;14537;47.788;11.858;2023-01-16T02:42:29;-1.10;99.90
26990;DHT22;14537;47.788;11.858;2023-01-16T02:45:05;-1.10;99.90
26990;DHT22;14537;47.788;11.858;2023-01-16T02:47:46;-1.10;99.90
26990;DHT22;14537;47.788;11.858;2023-01-16T02:53:13;-1.00;99.90
26990;DHT22;14537;47.788;11.858;2023-01-16T02:58:18;-1.00;99.90
26990;DHT22;14537;47.788;11.858;2023-01-16T03:00:58;-1.10;99.90
26990;DHT22;14537;47.788;11.858;2023-01-16T03:03:43;-1.10;99.90
26990;DHT22;14537;47.788;11.858;2023-01-16T03:14:38;-1.10;99.90
26990;DHT22;14537;47.788;11.858;2023-01-16T03:22:44;-1.10;99.90
26990;DHT22;14537;47.788;11.858;2023-01-16T03:33:08;-0.90;99.90
26990;DHT22;14537;47.788;11.858;2023-01-16T03:35:39;-0.90;99.90
26990;DHT22;14537;47.788;11.858;2023-01-16T03:38:10;-0.90;99.90
26990;DHT22;14537;47.788;11.858;2023-01-16T03:40:40;-0.80;99.90
26990;DHT22;14537;47.788;11.858;2023-01-16T03:43:24;-0.80;99.90
26990;DHT22;14537;47.788;11.858;2023-01-16T03:48:40;-0.70;99.90
26990;DHT22;14537;47.788;11.858;2023-01-16T03:51:08;-0.70;99.90
26990;DHT22;14537;47.788;11.858;2023-01-16T03:53:45;-0.60;99.90
26990;DHT22;14537;47.788;11.858;2023-01-16T03:56:26;-0.60;99.90
26990;DHT22;14537;47.788;11.858;2023-01-16T03:58:55;-0.60;99.90
26990;DHT22;14537;47.788;11.858;2023-01-16T04:01:27;-0.60;99.90
26990;DHT22;14537;47.788;11.858;2023-01-16T04:06:45;-0.60;99.90
26990;DHT22;14537;47.788;11.858;2023-01-16T04:09:34;-0.50;99.90
26990;DHT22;14537;47.788;11.858;2023-01-16T04:12:03;-0.50;99.90
26990;DHT22;14537;47.788;11.858;2023-01-16T04:14:30;-0.60;99.90
26990;DHT22;14537;47.788;11.858;2023-01-16T04:16:57;-0.60;99.90
26990;DHT22;14537;47.788;11.858;2023-01-16T04:19:24;-0.60;99.90
26990;DHT22;14537;47.788;11.858;2023-01-16T04:21:50;-0.60;99.90
26990;DHT22;14537;47.788;11.858;2023-01-16T04:24:16;-0.70;99.90
26990;DHT22;14537;47.788;11.858;2023-01-16T04:26:42;-0.70;99.90
26990;DHT22;14537;47.788;11.858;2023-01-16T04:29:07;-0.70;99.90
26990;DHT22;14537;47.788;11.858;2023-01-16T04:31:34;-0.70;99.90
26990;DHT22;14537;47.788;11.858;2023-01-16T04:33:59;-0.70;99.90
26990;DHT22;14537;47.788;11.858;2023-01-16T04:36:25;-0.70;99.90
26990;DHT22;14537;47.788;11.858;2023-01-16T04:38:50;-0.70;99.90
26990;DHT22;14537;47.788;11.858;2023-01-16T04:41:16;-0.80;99.90
26990;DHT22;14537;47.788;11.858;2023-01-16T04:44:01;-0.80;99.90
26990;DHT22;14537;47.788;11.858;2023-01-16T04:46:27;-0.80;99.90
26990;DHT22;14537;47.788;11.858;2023-01-16T04:48:53;-0.90;99.90
26990;DHT22;14537;47.788;11.858;2023-01-16T04:51:18;-1.00;99.90
26990;DHT22;14537;47.788;11.858;2023-01-16T04:53:44;-1.00;99.90
26990;DHT22;14537;47.788;11.858;2023-01-16T04:56:09;-1.00;99.90
26990;DHT22;14537;47.788;11.858;2023-01-16T04:58:35;-1.00;99.90
26990;DHT22;14537;47.788;11.858;2023-01-16T05:01:01;-1.00;99.90
26990;DHT22;14537;47.788;11.858;2023-01-16T05:03:26;-1.00;99.90
26990;DHT22;14537;47.788;11.858;2023-01-16T05:05:52;-1.10;99.90
26990;DHT22;14537;47.788;11.858;2023-01-16T05:08:17;-1.10;99.90
26990;DHT22;14537;47.788;11.858;2023-01-16T05:10:43;-1.20;99.90
26990;DHT22;14537;47.788;11.858;2023-01-16T05:13:09;-1.20;99.90
26990;DHT22;14537;47.788;11.858;2023-01-16T05:15:35;-1.20;99.90
26990;DHT22;14537;47.788;11.858;2023-01-16T05:18:00;-1.20;99.90
26990;DHT22;14537;47.788;11.858;2023-01-16T05:20:26;-1.20;99.90
26990;DHT22;14537;47.788;11.858;2023-01-16T05:22:51;-1.30;99.90
26990;DHT22;14537;47.788;11.858;2023-01-16T05:25:17;-1.40;99.90
26990;DHT22;14537;47.788;11.858;2023-01-16T05:27:42;-1.40;99.90
26990;DHT22;14537;47.788;11.858;2023-01-16T05:30:08;-1.40;99.90
26990;DHT22;14537;47.788;11.858;2023-01-16T05:32:35;-1.50;99.90
26990;DHT22;14537;47.788;11.858;2023-01-16T05:35:00;-1.50;99.90
26990;DHT22;14537;47.788;11.858;2023-01-16T05:37:27;-1.50;99.90
26990;DHT22;14537;47.788;11.858;2023-01-16T05:39:53;-1.50;99.90
26990;DHT22;14537;47.788;11.858;2023-01-16T05:42:22;-1.60;99.90
26990;DHT22;14537;47.788;11.858;2023-01-16T05:44:51;-1.60;99.90
26990;DHT22;14537;47.788;11.858;2023-01-16T05:47:20;-1.60;99.90
26990;DHT22;14537;47.788;11.858;2023-01-16T05:49:46;-1.60;99.90
26990;DHT22;14537;47.788;11.858;2023-01-16T05:52:12;-1.70;99.90
26990;DHT22;14537;47.788;11.858;2023-01-16T05:54:38;-1.70;99.90
26990;DHT22;14537;47.788;11.858;2023-01-16T05:57:04;-1.80;99.90
26990;DHT22;14537;47.788;11.858;2023-01-16T05:59:29;-1.70;99.90
26990;DHT22;14537;47.788;11.858;2023-01-16T06:01:55;-1.70;99.90
26990;DHT22;14537;47.788;11.858;2023-01-16T06:04:22;-1.80;99.90
26990;DHT22;14537;47.788;11.858;2023-01-16T06:06:48;-1.80;99.90
26990;DHT22;14537;47.788;11.858;2023-01-16T06:09:13;-1.80;99.90
26990;DHT22;14537;47.788;11.858;2023-01-16T06:11:39;-1.90;99.90
26990;DHT22;14537;47.788;11.858;2023-01-16T06:14:05;-1.90;99.90
26990;DHT22;14537;47.788;11.858;2023-01-16T06:16:31;-1.90;99.90
26990;DHT22;14537;47.788;11.858;2023-01-16T06:18:57;-1.90;99.90
26990;DHT22;14537;47.788;11.858;2023-01-16T06:21:23;-2.00;99.90
26990;DHT22;14537;47.788;11.858;2023-01-16T06:23:48;-1.90;99.90
26990;DHT22;14537;47.788;11.858;2023-01-16T06:26:14;-1.90;99.90
26990;DHT22;14537;47.788;11.858;2023-01-16T06:28:40;-1.90;99.90
26990;DHT22;14537;47.788;11.858;2023-01-16T06:31:06;-1.80;99.90
26990;DHT22;14537;47.788;11.858;2023-01-16T06:33:32;-1.80;99.90
26990;DHT22;14537;47.788;11.858;2023-01-16T06:35:58;-1.90;99.90
26990;DHT22;14537;47.788;11.858;2023-01-16T06:38:24;-1.90;99.90
26990;DHT22;14537;47.788;11.858;2023-01-16T06:40:50;-1.90;99.90
26990;DHT22;14537;47.788;11.858;2023-01-16T06:43:22;-1.90;99.90
26990;DHT22;14537;47.788;11.858;2023-01-16T06:45:47;-1.90;99.90
26990;DHT22;14537;47.788;11.858;2023-01-16T06:48:13;-1.90;99.90
26990;DHT22;14537;47.788;11.858;2023-01-16T06:50:39;-1.90;99.90
26990;DHT22;14537;47.788;11.858;2023-01-16T06:53:04;-1.90;99.90
26990;DHT22;14537;47.788;11.858;2023-01-16T06:55:30;-2.00;99.90
26990;DHT22;14537;47.788;11.858;2023-01-16T06:57:55;-2.00;99.90
26990;DHT22;14537;47.788;11.858;2023-01-16T07:00:21;-2.00;99.90
26990;DHT22;14537;47.788;11.858;2023-01-16T07:02:55;-2.00;99.90
26990;DHT22;14537;47.788;11.858;2023-01-16T07:05:25;-1.90;99.90
26990;DHT22;14537;47.788;11.858;2023-01-16T07:07:51;-2.00;99.90
26990;DHT22;14537;47.788;11.858;2023-01-16T07:10:17;-1.90;99.90
26990;DHT22;14537;47.788;11.858;2023-01-16T07:12:46;-1.90;99.90
26990;DHT22;14537;47.788;11.858;2023-01-16T07:15:11;-1.90;99.90
26990;DHT22;14537;47.788;11.858;2023-01-16T07:17:55;-2.00;99.90
26990;DHT22;14537;47.788;11.858;2023-01-16T07:20:39;-2.00;99.90
26990;DHT22;14537;47.788;11.858;2023-01-16T07:23:32;-2.00;99.90
26990;DHT22;14537;47.788;11.858;2023-01-16T07:26:01;-2.00;99.90
26990;DHT22;14537;47.788;11.858;2023-01-16T07:28:27;-2.00;99.90
26990;DHT22;14537;47.788;11.858;2023-01-16T07:30:54;-2.00;99.90
26990;DHT22;14537;47.788;11.858;2023-01-16T07:33:22;-1.90;99.90
26990;DHT22;14537;47.788;11.858;2023-01-16T07:35:48;-1.90;99.90
26990;DHT22;14537;47.788;11.858;2023-01-16T07:38:13;-1.90;99.90
26990;DHT22;14537;47.788;11.858;2023-01-16T07:40:39;-1.80;99.90
26990;DHT22;14537;47.788;11.858;2023-01-16T07:43:05;-1.80;99.90
26990;DHT22;14537;47.788;11.858;2023-01-16T07:45:30;-1.80;99.90
26990;DHT22;14537;47.788;11.858;2023-01-16T07:47:56;-1.80;99.90
26990;DHT22;14537;47.788;11.858;2023-01-16T07:50:22;-1.70;99.90
26990;DHT22;14537;47.788;11.858;2023-01-16T07:52:48;-1.70;99.90
26990;DHT22;14537;47.788;11.858;2023-01-16T07:55:14;-1.70;99.90
26990;DHT22;14537;47.788;11.858;2023-01-16T07:57:39;-1.70;99.90
26990;DHT22;14537;47.788;11.858;2023-01-16T08:00:06;-1.60;99.90
26990;DHT22;14537;47.788;11.858;2023-01-16T08:02:33;-1.60;99.90
26990;DHT22;14537;47.788;11.858;2023-01-16T08:04:58;-1.50;99.90
26990;DHT22;14537;47.788;11.858;2023-01-16T08:07:24;-1.40;99.90
26990;DHT22;14537;47.788;11.858;2023-01-16T08:09:49;-1.30;99.90
26990;DHT22;14537;47.788;11.858;2023-01-16T08:12:15;-1.30;99.90
26990;DHT22;14537;47.788;11.858;2023-01-16T08:14:40;-1.20;99.90
26990;DHT22;14537;47.788;11.858;2023-01-16T08:17:06;-1.30;99.90
26990;DHT22;14537;47.788;11.858;2023-01-16T08:19:32;-1.20;99.90
26990;DHT22;14537;47.788;11.858;2023-01-16T08:21:58;-1.20;99.90
26990;DHT22;14537;47.788;11.858;2023-01-16T08:24:24;-1.20;99.90
26990;DHT22;14537;47.788;11.858;2023-01-16T08:26:54;-1.20;99.90
26990;DHT22;14537;47.788;11.858;2023-01-16T08:29:21;-1.20;99.90
26990;DHT22;14537;47.788;11.858;2023-01-16T08:31:46;-1.10;99.90
26990;DHT22;14537;47.788;11.858;2023-01-16T08:34:12;-1.10;99.90
26990;DHT22;14537;47.788;11.858;2023-01-16T08:36:38;-1.10;99.90
26990;DHT22;14537;47.788;11.858;2023-01-16T08:39:03;-1.10;99.90
26990;DHT22;14537;47.788;11.858;2023-01-16T08:41:29;-1.10;99.90
26990;DHT22;14537;47.788;11.858;2023-01-16T08:44:13;-1.10;99.90
26990;DHT22;14537;47.788;11.858;2023-01-16T08:47:02;-1.10;99.90
26990;DHT22;14537;47.788;11.858;2023-01-16T08:49:47;-1.00;99.90
26990;DHT22;14537;47.788;11.858;2023-01-16T08:52:32;-1.00;99.90
26990;DHT22;14537;47.788;11.858;2023-01-16T08:54:59;-1.00;99.90
26990;DHT22;14537;47.788;11.858;2023-01-16T08:57:25;-1.00;99.90
26990;DHT22;14537;47.788;11.858;2023-01-16T08:59:53;-0.90;99.90
26990;DHT22;14537;47.788;11.858;2023-01-16T09:02:19;-0.90;99.90
26990;DHT22;14537;47.788;11.858;2023-01-16T09:04:45;-0.90;99.90
26990;DHT22;14537;47.788;11.858;2023-01-16T09:07:11;-0.90;99.90
26990;DHT22;14537;47.788;11.858;2023-01-16T09:09:37;-0.90;99.90
26990;DHT22;14537;47.788;11.858;2023-01-16T09:12:02;-0.90;99.90
26990;DHT22;14537;47.788;11.858;2023-01-16T09:14:46;-0.80;99.90
26990;DHT22;14537;47.788;11.858;2023-01-16T09:17:12;-0.70;99.90
26990;DHT22;14537;47.788;11.858;2023-01-16T09:19:38;-0.70;99.90
26990;DHT22;14537;47.788;11.858;2023-01-16T09:22:04;-0.60;99.90
26990;DHT22;14537;47.788;11.858;2023-01-16T09:24:32;-0.50;99.90
26990;DHT22;14537;47.788;11.858;2023-01-16T09:26:58;-0.50;99.90
26990;DHT22;14537;47.788;11.858;2023-01-16T09:29:24;-0.50;99.90
26990;DHT22;14537;47.788;11.858;2023-01-16T09:31:49;-0.50;99.90
26990;DHT22;14537;47.788;11.858;2023-01-16T09:34:15;-0.50;99.90
26990;DHT22;14537;47.788;11.858;2023-01-16T09:36:40;-0.40;99.90
26990;DHT22;14537;47.788;11.858;2023-01-16T09:39:06;-0.20;99.90
26990;DHT22;14537;47.788;11.858;2023-01-16T09:41:38;-0.10;99.90
26990;DHT22;14537;47.788;11.858;2023-01-16T09:44:26;-0.10;99.90
26990;DHT22;14537;47.788;11.858;2023-01-16T09:46:52;0.10;99.90
26990;DHT22;14537;47.788;11.858;2023-01-16T09:49:48;0.10;99.90
26990;DHT22;14537;47.788;11.858;2023-01-16T09:52:21;0.30;99.90
26990;DHT22;14537;47.788;11.858;2023-01-16T09:55:26;0.40;99.90
26990;DHT22;14537;47.788;11.858;2023-01-16T09:58:17;0.50;99.90
26990;DHT22;14537;47.788;11.858;2023-01-16T10:01:06;0.60;99.90
26990;DHT22;14537;47.788;11.858;2023-01-16T10:03:33;0.70;99.90
26990;DHT22;14537;47.788;11.858;2023-01-16T10:06:23;0.90;99.90
26990;DHT22;14537;47.788;11.858;2023-01-16T10:11:47;1.20;99.90
26990;DHT22;14537;47.788;11.858;2023-01-16T10:17:17;1.50;99.90
26990;DHT22;14537;47.788;11.858;2023-01-16T10:22:50;1.70;99.90
26990;DHT22;14537;47.788;11.858;2023-01-16T10:28:29;1.80;99.90
26990;DHT22;14537;47.788;11.858;2023-01-16T10:31:10;1.90;99.90
26990;DHT22;14537;47.788;11.858;2023-01-16T10:36:31;2.10;99.90
26990;DHT22;14537;47.788;11.858;2023-01-16T10:38:59;2.20;99.90
26990;DHT22;14537;47.788;11.858;2023-01-16T10:41:49;2.30;99.90
26990;DHT22;14537;47.788;11.858;2023-01-16T10:44:39;2.40;99.90
26990;DHT22;14537;47.788;11.858;2023-01-16T10:47:29;2.30;99.90
26990;DHT22;14537;47.788;11.858;2023-01-16T10:50:15;2.40;99.90
26990;DHT22;14537;47.788;11.858;2023-01-16T10:52:41;2.30;99.90
26990;DHT22;14537;47.788;11.858;2023-01-16T10:55:08;2.40;99.90
26990;DHT22;14537;47.788;11.858;2023-01-16T10:57:37;2.40;99.90
26990;DHT22;14537;47.788;11.858;2023-01-16T11:00:16;2.50;99.90
26990;DHT22;14537;47.788;11.858;2023-01-16T11:02:46;2.40;99.90
26990;DHT22;14537;47.788;11.858;2023-01-16T11:05:23;2.50;99.90
26990;DHT22;14537;47.788;11.858;2023-01-16T11:07:48;2.70;99.90
26990;DHT22;14537;47.788;11.858;2023-01-16T11:10:17;2.70;99.90
26990;DHT22;14537;47.788;11.858;2023-01-16T11:12:43;2.70;99.90
26990;DHT22;14537;47.788;11.858;2023-01-16T11:15:27;2.70;99.90
26990;DHT22;14537;47.788;11.858;2023-01-16T11:18:19;2.60;99.90
26990;DHT22;14537;47.788;11.858;2023-01-16T11:20:55;2.50;99.90
26990;DHT22;14537;47.788;11.858;2023-01-16T11:23:25;2.50;99.90
26990;DHT22;14537;47.788;11.858;2023-01-16T11:25:54;2.60;99.90
26990;DHT22;14537;47.788;11.858;2023-01-16T11:28:26;2.50;99.90
26990;DHT22;14537;47.788;11.858;2023-01-16T11:30:58;2.50;99.90
26990;DHT22;14537;47.788;11.858;2023-01-16T11:33:35;2.60;99.90
26990;DHT22;14537;47.788;11.858;2023-01-16T11:36:04;2.60;99.90
26990;DHT22;14537;47.788;11.858;2023-01-16T11:38:35;2.70;99.90
26990;DHT22;14537;47.788;11.858;2023-01-16T11:41:04;2.70;99.90
26990;DHT22;14537;47.788;11.858;2023-01-16T11:43:31;2.80;99.90
26990;DHT22;14537;47.788;11.858;2023-01-16T11:49:02;2.90;99.90
26990;DHT22;14537;47.788;11.858;2023-01-16T11:51:35;2.90;99.90
26990;DHT22;14537;47.788;11.858;2023-01-16T11:54:02;2.90;99.90
26990;DHT22;14537;47.788;11.858;2023-01-16T11:57:02;2.90;99.90
26990;DHT22;14537;47.788;11.858;2023-01-16T11:59:41;3.00;99.90
26990;DHT22;14537;47.788;11.858;2023-01-16T12:05:43;3.10;99.90
26990;DHT22;14537;47.788;11.858;2023-01-16T12:11:28;3.20;99.90
26990;DHT22;14537;47.788;11.858;2023-01-16T12:33:37;3.70;99.90
26990;DHT22;14537;47.788;11.858;2023-01-16T12:36:23;3.80;99.90
26990;DHT22;14537;47.788;11.858;2023-01-16T12:39:01;3.80;99.90
26990;DHT22;14537;47.788;11.858;2023-01-16T12:53:11;3.80;99.90
26990;DHT22;14537;47.788;11.858;2023-01-16T12:56:11;3.80;99.90
26990;DHT22;14537;47.788;11.858;2023-01-16T12:58:43;3.80;99.90
26990;DHT22;14537;47.788;11.858;2023-01-16T13:01:18;3.90;99.90
26990;DHT22;14537;47.788;11.858;2023-01-16T13:06:52;3.90;99.90
26990;DHT22;14537;47.788;11.858;2023-01-16T13:14:57;3.90;99.90
26990;DHT22;14537;47.788;11.858;2023-01-16T13:20:14;3.80;99.90
26990;DHT22;14537;47.788;11.858;2023-01-16T13:23:01;3.80;99.90
26990;DHT22;14537;47.788;11.858;2023-01-16T13:25:34;3.80;99.90
26990;DHT22;14537;47.788;11.858;2023-01-16T13:30:40;3.90;99.90
26990;DHT22;14537;47.788;11.858;2023-01-16T13:33:15;3.90;99.90
26990;DHT22;14537;47.788;11.858;2023-01-16T13:36:18;3.90;99.90
26990;DHT22;14537;47.788;11.858;2023-01-16T13:41:52;3.80;99.90
26990;DHT22;14537;47.788;11.858;2023-01-16T13:44:24;3.80;99.90
26990;DHT22;14537;47.788;11.858;2023-01-16T13:47:20;3.80;99.90
26990;DHT22;14537;47.788;11.858;2023-01-16T13:49:54;3.80;99.90
26990;DHT22;14537;47.788;11.858;2023-01-16T13:52:25;3.80;99.90
26990;DHT22;14537;47.788;11.858;2023-01-16T13:54:55;3.70;99.90
26990;DHT22;14537;47.788;11.858;2023-01-16T13:57:23;3.70;99.90
26990;DHT22;14537;47.788;11.858;2023-01-16T13:59:55;3.80;99.90
26990;DHT22;14537;47.788;11.858;2023-01-16T14:02:40;3.70;99.90
26990;DHT22;14537;47.788;11.858;2023-01-16T14:13:40;3.70;99.90
26990;DHT22;14537;47.788;11.858;2023-01-16T14:21:24;3.90;99.90
26990;DHT22;14537;47.788;11.858;2023-01-16T14:24:00;3.90;99.90
26990;DHT22;14537;47.788;11.858;2023-01-16T14:26:33;3.90;99.90
26990;DHT22;14537;47.788;11.858;2023-01-16T14:29:25;3.80;99.90
26990;DHT22;14537;47.788;11.858;2023-01-16T14:34:41;4.00;99.90
26990;DHT22;14537;47.788;11.858;2023-01-16T14:37:16;3.90;99.90
26990;DHT22;14537;47.788;11.858;2023-01-16T14:39:56;3.80;99.90
26990;DHT22;14537;47.788;11.858;2023-01-16T14:42:38;3.80;99.90
26990;DHT22;14537;47.788;11.858;2023-01-16T14:54:09;3.40;99.90
26990;DHT22;14537;47.788;11.858;2023-01-16T14:59:35;3.20;99.90
26990;DHT22;14537;47.788;11.858;2023-01-16T15:02:21;3.20;99.90
26990;DHT22;14537;47.788;11.858;2023-01-16T15:07:47;3.20;99.90
26990;DHT22;14537;47.788;11.858;2023-01-16T15:10:27;3.10;99.90
26990;DHT22;14537;47.788;11.858;2023-01-16T15:13:15;3.10;99.90
26990;DHT22;14537;47.788;11.858;2023-01-16T15:15:48;3.00;99.90
26990;DHT22;14537;47.788;11.858;2023-01-16T15:18:17;3.00;99.90
26990;DHT22;14537;47.788;11.858;2023-01-16T15:21:03;2.90;99.90
26990;DHT22;14537;47.788;11.858;2023-01-16T15:24:06;3.00;99.90
26990;DHT22;14537;47.788;11.858;2023-01-16T15:26:41;2.90;99.90
26990;DHT22;14537;47.788;11.858;2023-01-16T15:29:28;2.90;99.90
26990;DHT22;14537;47.788;11.858;2023-01-16T15:32:04;2.90;99.90
26990;DHT22;14537;47.788;11.858;2023-01-16T15:34:34;2.80;99.90
26990;DHT22;14537;47.788;11.858;2023-01-16T15:37:00;2.80;99.90
26990;DHT22;14537;47.788;11.858;2023-01-16T15:42:18;2.70;99.90
26990;DHT22;14537;47.788;11.858;2023-01-16T15:48:16;2.50;99.90
26990;DHT22;14537;47.788;11.858;2023-01-16T15:50:53;2.50;99.90
26990;DHT22;14537;47.788;11.858;2023-01-16T15:53:22;2.50;99.90
26990;DHT22;14537;47.788;11.858;2023-01-16T15:55:50;2.50;99.90
26990;DHT22;14537;47.788;11.858;2023-01-16T15:58:22;2.40;99.90
26990;DHT22;14537;47.788;11.858;2023-01-16T16:03:22;2.30;99.90
26990;DHT22;14537;47.788;11.858;2023-01-16T16:05:55;2.30;99.90
26990;DHT22;14537;47.788;11.858;2023-01-16T16:08:25;2.30;99.90
26990;DHT22;14537;47.788;11.858;2023-01-16T16:10:52;2.20;99.90
26990;DHT22;14537;47.788;11.858;2023-01-16T16:13:38;2.20;99.90
26990;DHT22;14537;47.788;11.858;2023-01-16T16:16:16;2.20;99.90
26990;DHT22;14537;47.788;11.858;2023-01-16T16:19:01;2.20;99.90
26990;DHT22;14537;47.788;11.858;2023-01-16T16:21:45;2.10;99.90
26990;DHT22;14537;47.788;11.858;2023-01-16T16:24:33;2.10;99.90
26990;DHT22;14537;47.788;11.858;2023-01-16T16:27:04;2.10;99.90
26990;DHT22;14537;47.788;11.858;2023-01-16T16:29:32;2.10;99.90
26990;DHT22;14537;47.788;11.858;2023-01-16T16:32:03;2.10;99.90
26990;DHT22;14537;47.788;11.858;2023-01-16T16:34:30;2.00;99.90
26990;DHT22;14537;47.788;11.858;2023-01-16T16:37:01;1.90;99.90
26990;DHT22;14537;47.788;11.858;2023-01-16T16:42:00;1.80;99.90
26990;DHT22;14537;47.788;11.858;2023-01-16T16:44:46;1.80;99.90
26990;DHT22;14537;47.788;11.858;2023-01-16T16:47:28;1.70;99.90
26990;DHT22;14537;47.788;11.858;2023-01-16T16:49:54;1.70;99.90
26990;DHT22;14537;47.788;11.858;2023-01-16T16:52:22;1.70;99.90
26990;DHT22;14537;47.788;11.858;2023-01-16T16:54:52;1.70;99.90
26990;DHT22;14537;47.788;11.858;2023-01-16T16:57:18;1.60;99.90
26990;DHT22;14537;47.788;11.858;2023-01-16T16:59:46;1.60;99.90
26990;DHT22;14537;47.788;11.858;2023-01-16T17:02:11;1.50;99.90
26990;DHT22;14537;47.788;11.858;2023-01-16T17:04:38;1.50;99.90
26990;DHT22;14537;47.788;11.858;2023-01-16T17:07:04;1.50;99.90
26990;DHT22;14537;47.788;11.858;2023-01-16T17:09:30;1.50;99.90
26990;DHT22;14537;47.788;11.858;2023-01-16T17:12:18;1.50;99.90
26990;DHT22;14537;47.788;11.858;2023-01-16T17:14:47;1.40;99.90
26990;DHT22;14537;47.788;11.858;2023-01-16T17:17:15;1.40;99.90
26990;DHT22;14537;47.788;11.858;2023-01-16T17:19:41;1.30;99.90
26990;DHT22;14537;47.788;11.858;2023-01-16T17:22:09;1.30;99.90
26990;DHT22;14537;47.788;11.858;2023-01-16T17:24:35;1.30;99.90
26990;DHT22;14537;47.788;11.858;2023-01-16T17:27:01;1.20;99.90
26990;DHT22;14537;47.788;11.858;2023-01-16T17:29:27;1.00;99.90
26990;DHT22;14537;47.788;11.858;2023-01-16T17:31:53;0.90;99.90
26990;DHT22;14537;47.788;11.858;2023-01-16T17:34:20;0.90;99.90
26990;DHT22;14537;47.788;11.858;2023-01-16T17:36:46;0.80;99.90
26990;DHT22;14537;47.788;11.858;2023-01-16T17:39:15;0.80;99.90
26990;DHT22;14537;47.788;11.858;2023-01-16T17:41:40;0.80;99.90
26990;DHT22;14537;47.788;11.858;2023-01-16T17:44:18;0.60;99.90
26990;DHT22;14537;47.788;11.858;2023-01-16T17:47:03;0.70;99.90
26990;DHT22;14537;47.788;11.858;2023-01-16T17:49:29;0.50;99.90
26990;DHT22;14537;47.788;11.858;2023-01-16T17:51:55;0.50;99.90
26990;DHT22;14537;47.788;11.858;2023-01-16T17:54:20;0.50;99.90
26990;DHT22;14537;47.788;11.858;2023-01-16T17:57:05;0.50;99.90
26990;DHT22;14537;47.788;11.858;2023-01-16T17:59:30;0.40;99.90
26990;DHT22;14537;47.788;11.858;2023-01-16T18:01:56;0.40;99.90
26990;DHT22;14537;47.788;11.858;2023-01-16T18:04:21;0.40;99.90
26990;DHT22;14537;47.788;11.858;2023-01-16T18:06:47;0.40;99.90
26990;DHT22;14537;47.788;11.858;2023-01-16T18:09:13;0.30;99.90
26990;DHT22;14537;47.788;11.858;2023-01-16T18:11:42;0.20;99.90
26990;DHT22;14537;47.788;11.858;2023-01-16T18:14:27;0.10;99.90
26990;DHT22;14537;47.788;11.858;2023-01-16T18:17:13;0.00;99.90
26990;DHT22;14537;47.788;11.858;2023-01-16T18:19:54;0.10;99.90
26990;DHT22;14537;47.788;11.858;2023-01-16T18:22:23;0.20;99.90
26990;DHT22;14537;47.788;11.858;2023-01-16T18:24:50;0.30;99.90
26990;DHT22;14537;47.788;11.858;2023-01-16T18:27:17;0.20;99.90
26990;DHT22;14537;47.788;11.858;2023-01-16T18:29:45;0.20;99.90
26990;DHT22;14537;47.788;11.858;2023-01-16T18:32:12;0.10;99.90
26990;DHT22;14537;47.788;11.858;2023-01-16T18:34:52;0.10;99.90